Time;durP1;ratioP1;P1;durP2;ratioP2;P2;SDS_P1;SDS_P2;PMS_P1;PMS_P2;Temp;Humidity;BMP_temperature;BMP_pressure;BME280_temperature;BME280_humidity;BME280_pressure;Samples;Min_cycle;Max_cycle;Signal;HPM_P1;HPM_P2
2022/08/30 00:01:41;;;;;;;8.30;4.60;;;;;;;;;;5005452;28;20049;-76
2022/08/30 00:04:26;;;;;;;7.60;4.43;;;;;;;;;;5005078;28;20253;-78
2022/08/30 00:07:12;;;;;;;7.78;4.47;;;;;;;;;;5011165;28;20022;-76
2022/08/30 00:09:58;;;;;;;10.43;5.30;;;;;;;;;;5018022;28;20025;-75
2022/08/30 00:12:43;;;;;;;8.55;5.28;;;;;;;;;;5011088;28;20018;-77
2022/08/30 00:15:29;;;;;;;10.27;5.20;;;;;;;;;;5004996;28;20043;-76
2022/08/30 00:18:16;;;;;;;9.90;4.97;;;;;;;;;;5004998;28;20453;-76
2022/08/30 00:21:02;;;;;;;7.20;4.07;;;;;;;;;;5010817;28;20018;-76
2022/08/30 00:23:48;;;;;;;6.80;4.45;;;;;;;;;;5011484;28;20026;-76
2022/08/30 00:26:34;;;;;;;7.32;4.30;;;;;;;;;;5011688;28;20048;-76
2022/08/30 00:29:19;;;;;;;10.40;4.60;;;;;;;;;;5005054;28;20041;-73
2022/08/30 00:32:05;;;;;;;6.30;4.35;;;;;;;;;;5008031;28;20022;-72
2022/08/30 00:34:51;;;;;;;8.75;5.35;;;;;;;;;;5003699;28;20046;-72
2022/08/30 00:37:37;;;;;;;7.47;4.40;;;;;;;;;;5007284;28;20576;-73
2022/08/30 00:40:23;;;;;;;8.23;4.30;;;;;;;;;;5002596;28;20034;-73
2022/08/30 00:43:12;;;;;;;7.97;4.75;;;;;;;;;;5003115;28;20504;-73
2022/08/30 00:45:58;;;;;;;10.73;4.82;;;;;;;;;;5003311;28;20397;-71
2022/08/30 00:48:46;;;;;;;7.85;4.40;;;;;;;;;;5009865;28;20370;-73
2022/08/30 00:51:32;;;;;;;8.30;4.63;;;;;;;;;;5010098;28;20402;-73
2022/08/30 00:54:18;;;;;;;7.00;4.35;;;;;;;;;;5011386;28;20021;-73
2022/08/30 00:57:04;;;;;;;6.93;4.60;;;;;;;;;;5010341;28;20033;-73
2022/08/30 00:59:49;;;;;;;8.23;5.63;;;;;;;;;;5007385;28;20388;-72
2022/08/30 01:02:35;;;;;;;4.95;4.05;;;;;;;;;;5008489;28;20030;-72
2022/08/30 01:05:21;;;;;;;13.73;4.57;;;;;;;;;;5001006;28;20026;-73
2022/08/30 01:08:06;;;;;;;7.10;4.65;;;;;;;;;;5009855;28;20088;-74
2022/08/30 01:16:40;;;;;;;6.03;4.75;;;;;;;;;;5087313;22;20706;-79
2022/08/30 01:19:52;;;;;;;7.70;4.72;;;;;;;;;;5012093;28;20088;-78
2022/08/30 01:22:43;;;;;;;8.27;4.80;;;;;;;;;;5012569;28;20025;-79
2022/08/30 01:25:29;;;;;;;8.80;4.25;;;;;;;;;;5013351;28;20061;-79
2022/08/30 01:28:18;;;;;;;7.60;4.30;;;;;;;;;;5009921;28;20517;-78
2022/08/30 01:31:03;;;;;;;12.43;5.15;;;;;;;;;;4993591;28;20025;-76
2022/08/30 01:33:49;;;;;;;9.48;4.47;;;;;;;;;;4992415;28;20053;-76
2022/08/30 01:36:36;;;;;;;7.43;4.60;;;;;;;;;;5013498;28;20033;-76
2022/08/30 01:39:22;;;;;;;8.13;4.40;;;;;;;;;;5005952;28;20439;-75
2022/08/30 01:42:07;;;;;;;10.25;5.00;;;;;;;;;;5008283;28;20053;-75
2022/08/30 01:44:53;;;;;;;7.10;4.40;;;;;;;;;;4996743;28;20026;-75
2022/08/30 01:47:39;;;;;;;6.45;4.32;;;;;;;;;;5010193;28;20029;-75
2022/08/30 01:50:24;;;;;;;8.48;4.53;;;;;;;;;;5014134;28;20935;-83
2022/08/30 01:53:10;;;;;;;7.10;4.45;;;;;;;;;;5001381;28;20487;-75
2022/08/30 01:55:55;;;;;;;9.85;4.88;;;;;;;;;;5008051;28;20045;-75
2022/08/30 01:58:41;;;;;;;7.25;4.95;;;;;;;;;;5001968;28;20105;-75
2022/08/30 02:01:27;;;;;;;7.10;4.95;;;;;;;;;;5010471;28;20099;-75
2022/08/30 02:04:13;;;;;;;6.97;4.07;;;;;;;;;;5006660;28;20034;-75
2022/08/30 02:06:59;;;;;;;8.80;5.95;;;;;;;;;;5006666;28;20069;-77
2022/08/30 02:09:44;;;;;;;10.70;4.97;;;;;;;;;;5008736;28;21536;-80
2022/08/30 02:12:30;;;;;;;6.78;4.45;;;;;;;;;;5014080;28;20026;-79
2022/08/30 02:15:16;;;;;;;6.30;4.10;;;;;;;;;;5013527;28;20415;-79
2022/08/30 02:18:01;;;;;;;6.25;4.65;;;;;;;;;;5011354;28;20042;-79
2022/08/30 02:20:47;;;;;;;12.15;5.28;;;;;;;;;;5005825;28;20021;-78
2022/08/30 02:23:33;;;;;;;6.85;4.97;;;;;;;;;;5013427;28;20109;-79
2022/08/30 02:26:19;;;;;;;8.13;4.60;;;;;;;;;;4983382;28;20084;-73
2022/08/30 02:29:05;;;;;;;8.68;5.18;;;;;;;;;;4990459;28;20534;-74
2022/08/30 02:31:50;;;;;;;9.52;4.72;;;;;;;;;;4994984;28;20501;-73
2022/08/30 02:34:36;;;;;;;12.80;5.10;;;;;;;;;;4987778;28;20472;-73
2022/08/30 02:37:21;;;;;;;8.00;4.78;;;;;;;;;;5007485;28;20065;-73
2022/08/30 02:40:08;;;;;;;8.98;5.07;;;;;;;;;;5001839;28;20529;-73
2022/08/30 02:42:54;;;;;;;8.52;5.22;;;;;;;;;;5002385;28;20088;-73
2022/08/30 02:45:39;;;;;;;6.25;4.10;;;;;;;;;;4985721;28;20121;-75
2022/08/30 02:48:25;;;;;;;7.50;4.53;;;;;;;;;;4994122;28;20037;-73
2022/08/30 02:51:12;;;;;;;7.63;4.57;;;;;;;;;;5006773;28;20503;-71
2022/08/30 02:53:57;;;;;;;9.02;5.30;;;;;;;;;;5011862;28;20022;-72
2022/08/30 02:56:43;;;;;;;8.43;4.65;;;;;;;;;;5007888;28;20049;-72
2022/08/30 02:59:28;;;;;;;8.10;4.53;;;;;;;;;;5001973;28;20057;-73
2022/08/30 03:02:14;;;;;;;10.48;5.35;;;;;;;;;;5000748;28;20037;-75
2022/08/30 03:05:00;;;;;;;8.65;5.45;;;;;;;;;;5002761;28;20027;-73
2022/08/30 03:07:46;;;;;;;9.32;5.20;;;;;;;;;;4997808;28;20040;-74
2022/08/30 03:10:31;;;;;;;8.05;4.82;;;;;;;;;;5002903;28;20108;-72
2022/08/30 03:13:17;;;;;;;8.48;4.07;;;;;;;;;;4991632;28;20040;-74
2022/08/30 03:16:03;;;;;;;8.23;4.95;;;;;;;;;;5002585;28;20472;-74
2022/08/30 03:18:48;;;;;;;9.20;5.10;;;;;;;;;;5003378;28;20030;-73
2022/08/30 03:21:35;;;;;;;8.85;5.13;;;;;;;;;;5008562;28;20033;-73
2022/08/30 03:24:20;;;;;;;7.68;4.47;;;;;;;;;;4998369;28;20509;-82
2022/08/30 03:27:06;;;;;;;7.00;4.57;;;;;;;;;;4999394;28;20052;-81
2022/08/30 03:29:52;;;;;;;8.05;4.78;;;;;;;;;;4994753;28;20396;-81
2022/08/30 03:32:38;;;;;;;8.13;4.68;;;;;;;;;;5007148;28;20430;-82
2022/08/30 03:35:24;;;;;;;6.57;4.90;;;;;;;;;;5007775;28;20057;-81
2022/08/30 03:38:09;;;;;;;9.55;5.40;;;;;;;;;;4988944;28;20045;-82
2022/08/30 03:40:55;;;;;;;13.40;5.10;;;;;;;;;;4981343;28;20416;-77
2022/08/30 03:43:40;;;;;;;8.13;4.80;;;;;;;;;;5006717;28;20173;-74
2022/08/30 03:46:26;;;;;;;7.07;4.15;;;;;;;;;;4989014;28;20396;-75
2022/08/30 03:49:12;;;;;;;7.72;5.00;;;;;;;;;;5006183;28;20034;-74
2022/08/30 03:51:57;;;;;;;7.35;4.60;;;;;;;;;;5000272;28;20030;-75
2022/08/30 03:54:43;;;;;;;7.25;4.97;;;;;;;;;;5006446;28;20026;-76
2022/08/30 03:57:28;;;;;;;8.40;4.65;;;;;;;;;;5010265;28;20100;-73
2022/08/30 04:00:14;;;;;;;8.43;5.13;;;;;;;;;;4998301;28;20480;-82
2022/08/30 04:03:00;;;;;;;8.40;5.15;;;;;;;;;;4983455;28;20061;-83
2022/08/30 04:05:46;;;;;;;6.65;4.57;;;;;;;;;;4989510;28;20030;-85
2022/08/30 04:08:31;;;;;;;7.97;4.90;;;;;;;;;;4995795;28;20053;-81
2022/08/30 04:11:17;;;;;;;7.80;5.38;;;;;;;;;;4987674;28;20029;-81
2022/08/30 04:14:02;;;;;;;8.52;5.35;;;;;;;;;;5005389;28;20394;-81
2022/08/30 04:16:48;;;;;;;9.23;5.30;;;;;;;;;;4983251;28;20026;-78
2022/08/30 04:19:34;;;;;;;9.30;4.82;;;;;;;;;;5000112;28;20030;-73
2022/08/30 04:22:20;;;;;;;7.97;4.95;;;;;;;;;;5010012;28;20053;-72
2022/08/30 04:25:06;;;;;;;7.30;4.75;;;;;;;;;;5003564;28;20084;-73
2022/08/30 04:27:52;;;;;;;9.13;5.03;;;;;;;;;;5006106;28;20033;-72
2022/08/30 04:30:39;;;;;;;7.97;4.97;;;;;;;;;;4989999;28;20080;-71
2022/08/30 04:33:24;;;;;;;8.98;5.57;;;;;;;;;;5002083;28;20049;-73
2022/08/30 04:36:10;;;;;;;11.52;5.20;;;;;;;;;;4988125;28;20105;-74
2022/08/30 04:38:56;;;;;;;8.85;5.00;;;;;;;;;;4995062;28;20317;-72
2022/08/30 04:41:41;;;;;;;10.10;5.63;;;;;;;;;;5010136;28;20033;-72
2022/08/30 04:44:27;;;;;;;10.10;6.63;;;;;;;;;;5008597;28;20026;-72
2022/08/30 04:47:12;;;;;;;9.23;5.05;;;;;;;;;;5011110;28;20032;-73
2022/08/30 04:49:58;;;;;;;9.15;5.90;;;;;;;;;;5001943;28;20092;-73
2022/08/30 04:52:44;;;;;;;9.15;6.05;;;;;;;;;;5011929;28;20057;-80
2022/08/30 04:55:29;;;;;;;10.68;5.72;;;;;;;;;;4982690;28;20030;-74
2022/08/30 04:58:16;;;;;;;8.55;5.47;;;;;;;;;;5006727;28;20053;-73
2022/08/30 05:01:02;;;;;;;6.72;4.93;;;;;;;;;;4988028;28;20034;-73
2022/08/30 05:03:47;;;;;;;9.25;5.55;;;;;;;;;;4996492;28;20026;-73
2022/08/30 05:06:33;;;;;;;7.78;5.18;;;;;;;;;;4999021;28;20053;-71
2022/08/30 05:09:20;;;;;;;8.63;5.68;;;;;;;;;;4999230;28;20096;-73
2022/08/30 05:12:06;;;;;;;8.90;5.22;;;;;;;;;;5003281;28;20453;-74
2022/08/30 05:14:51;;;;;;;8.88;5.45;;;;;;;;;;5000657;28;20096;-72
2022/08/30 05:17:37;;;;;;;9.75;5.55;;;;;;;;;;5002783;28;20470;-73
2022/08/30 05:20:23;;;;;;;8.52;4.95;;;;;;;;;;5003650;28;20204;-73
2022/08/30 05:23:09;;;;;;;9.95;5.28;;;;;;;;;;5003418;28;20492;-73
2022/08/30 05:25:54;;;;;;;10.52;5.60;;;;;;;;;;4997759;28;20472;-74
2022/08/30 05:28:40;;;;;;;9.45;6.32;;;;;;;;;;5008837;28;20092;-74
2022/08/30 05:31:28;;;;;;;13.80;5.97;;;;;;;;;;4982051;28;20030;-74
2022/08/30 05:34:13;;;;;;;12.90;6.75;;;;;;;;;;5002483;28;20057;-73
2022/08/30 05:37:01;;;;;;;10.40;6.13;;;;;;;;;;4996713;28;20340;-73
2022/08/30 05:39:47;;;;;;;9.15;5.85;;;;;;;;;;5011790;28;20026;-69
2022/08/30 05:42:32;;;;;;;8.43;5.22;;;;;;;;;;5003120;28;20491;-68
2022/08/30 05:45:18;;;;;;;9.68;5.75;;;;;;;;;;5008183;28;20037;-77
2022/08/30 05:48:03;;;;;;;11.20;6.22;;;;;;;;;;4997647;28;20403;-74
2022/08/30 05:50:49;;;;;;;11.27;5.75;;;;;;;;;;5006408;28;20144;-68
2022/08/30 05:53:35;;;;;;;11.98;5.97;;;;;;;;;;4998641;28;20139;-70
2022/08/30 05:56:22;;;;;;;10.57;5.50;;;;;;;;;;5009453;28;20427;-68
2022/08/30 05:59:07;;;;;;;9.13;5.55;;;;;;;;;;5006882;28;20358;-69
2022/08/30 06:01:56;;;;;;;8.68;5.47;;;;;;;;;;4986884;28;20022;-67
2022/08/30 06:04:41;;;;;;;8.10;5.00;;;;;;;;;;5003101;28;20123;-68
2022/08/30 06:07:27;;;;;;;13.20;6.68;;;;;;;;;;5002763;28;20396;-68
2022/08/30 06:10:13;;;;;;;9.13;5.50;;;;;;;;;;5007967;28;20026;-72
2022/08/30 06:12:58;;;;;;;9.18;5.75;;;;;;;;;;5010801;28;20365;-71
2022/08/30 06:15:45;;;;;;;9.93;5.53;;;;;;;;;;5009713;28;20019;-70
2022/08/30 06:18:30;;;;;;;7.07;4.50;;;;;;;;;;5013354;28;20297;-70
2022/08/30 06:21:20;;;;;;;9.05;4.97;;;;;;;;;;5009525;28;20030;-68
2022/08/30 06:24:05;;;;;;;;;;;;;;;;;;5003515;28;20030;-69
2022/08/30 06:26:51;;;;;;;9.73;5.35;;;;;;;;;;5007206;28;20323;-68
2022/08/30 06:29:36;;;;;;;9.25;5.72;;;;;;;;;;4993800;28;20081;-72
2022/08/30 06:32:22;;;;;;;8.80;5.18;;;;;;;;;;5004058;28;20037;-67
2022/08/30 06:35:08;;;;;;;6.35;5.00;;;;;;;;;;5006084;28;20030;-69
2022/08/30 06:37:54;;;;;;;9.70;5.28;;;;;;;;;;4999458;28;20071;-72
2022/08/30 06:40:39;;;;;;;10.25;5.72;;;;;;;;;;5010186;28;20022;-69
2022/08/30 06:43:25;;;;;;;10.40;5.32;;;;;;;;;;4996127;28;20042;-70
2022/08/30 06:46:15;;;;;;;9.75;5.43;;;;;;;;;;5005096;28;20027;-70
2022/08/30 06:49:02;;;;;;;9.32;5.05;;;;;;;;;;5008539;28;20806;-70
2022/08/30 06:51:47;;;;;;;12.00;5.18;;;;;;;;;;5004357;28;20072;-71
2022/08/30 06:54:33;;;;;;;9.05;5.25;;;;;;;;;;5000509;28;20113;-72
2022/08/30 06:57:19;;;;;;;8.95;5.18;;;;;;;;;;5003105;28;20096;-72
2022/08/30 07:00:06;;;;;;;9.65;5.30;;;;;;;;;;5000184;28;20500;-69
2022/08/30 07:02:52;;;;;;;10.35;5.97;;;;;;;;;;5001295;28;20034;-73
2022/08/30 07:05:37;;;;;;;11.18;6.05;;;;;;;;;;5002308;28;20065;-72
2022/08/30 07:08:24;;;;;;;10.68;6.10;;;;;;;;;;5000107;28;20392;-67
2022/08/30 07:11:09;;;;;;;8.95;5.65;;;;;;;;;;5001862;28;20032;-70
2022/08/30 07:13:55;;;;;;;11.68;5.75;;;;;;;;;;5002939;28;20033;-71
2022/08/30 07:16:42;;;;;;;9.13;5.80;;;;;;;;;;4996174;28;20065;-69
2022/08/30 07:19:27;;;;;;;16.08;6.43;;;;;;;;;;4994418;28;20026;-70
2022/08/30 07:22:13;;;;;;;9.77;6.15;;;;;;;;;;5003153;28;20515;-68
2022/08/30 07:24:59;;;;;;;10.32;6.05;;;;;;;;;;5000498;28;20034;-78
2022/08/30 07:27:44;;;;;;;16.58;6.45;;;;;;;;;;5005788;28;20029;-76
2022/08/30 07:30:30;;;;;;;11.60;6.07;;;;;;;;;;5007765;28;20113;-75
2022/08/30 07:33:16;;;;;;;12.20;5.85;;;;;;;;;;4994645;28;20030;-77
2022/08/30 07:36:03;;;;;;;11.88;6.10;;;;;;;;;;4999513;28;20033;-74
2022/08/30 07:38:49;;;;;;;12.93;6.28;;;;;;;;;;5003840;28;20105;-68
2022/08/30 07:41:37;;;;;;;14.18;6.72;;;;;;;;;;4994693;28;20044;-68
2022/08/30 07:44:22;;;;;;;10.82;6.45;;;;;;;;;;5003422;28;20030;-70
2022/08/30 07:47:08;;;;;;;12.00;6.68;;;;;;;;;;4993108;28;20157;-69
2022/08/30 07:49:54;;;;;;;11.10;7.07;;;;;;;;;;5010565;28;20040;-70
2022/08/30 07:52:39;;;;;;;12.50;7.03;;;;;;;;;;5006336;28;20027;-69
2022/08/30 07:55:25;;;;;;;10.40;6.00;;;;;;;;;;5006201;28;20091;-69
2022/08/30 07:58:10;;;;;;;12.65;6.70;;;;;;;;;;5003053;28;20457;-75
2022/08/30 08:00:58;;;;;;;11.50;7.32;;;;;;;;;;4998249;28;20062;-71
2022/08/30 08:03:44;;;;;;;11.25;6.63;;;;;;;;;;4996370;28;20052;-68
2022/08/30 08:06:29;;;;;;;10.40;5.75;;;;;;;;;;5005630;28;20496;-70
2022/08/30 08:09:15;;;;;;;9.40;6.20;;;;;;;;;;4996967;28;20030;-68
2022/08/30 08:12:02;;;;;;;13.32;5.60;;;;;;;;;;5000003;28;20125;-70
2022/08/30 08:14:48;;;;;;;10.90;5.82;;;;;;;;;;4998406;28;20044;-66
2022/08/30 08:17:34;;;;;;;10.88;5.32;;;;;;;;;;5002418;28;20092;-68
2022/08/30 08:20:20;;;;;;;8.52;5.93;;;;;;;;;;5007768;28;20080;-75
2022/08/30 08:23:05;;;;;;;9.85;6.35;;;;;;;;;;5000386;28;20034;-73
2022/08/30 08:25:51;;;;;;;12.27;6.53;;;;;;;;;;5011356;28;20451;-78
2022/08/30 08:28:37;;;;;;;9.75;5.75;;;;;;;;;;5005822;28;20018;-83
2022/08/30 08:31:24;;;;;;;10.38;5.38;;;;;;;;;;5009754;28;20041;-75
2022/08/30 08:34:10;;;;;;;9.80;5.68;;;;;;;;;;4995304;28;20100;-69
2022/08/30 08:36:56;;;;;;;10.82;5.85;;;;;;;;;;4996853;28;20030;-74
2022/08/30 08:39:42;;;;;;;9.95;5.97;;;;;;;;;;4993166;28;20030;-73
2022/08/30 08:42:27;;;;;;;12.57;6.63;;;;;;;;;;5006532;28;20038;-74
2022/08/30 08:45:15;;;;;;;9.77;5.57;;;;;;;;;;4994533;28;20053;-70
2022/08/30 08:48:08;;;;;;;10.57;5.10;;;;;;;;;;5001365;28;20393;-70
2022/08/30 08:54:01;;;;;;;7.80;4.65;;;;;;;;;;5000132;28;20054;-68
2022/08/30 08:56:47;;;;;;;10.38;5.55;;;;;;;;;;4980462;28;20039;-68
2022/08/30 08:59:32;;;;;;;8.15;5.00;;;;;;;;;;4996239;28;20072;-68
2022/08/30 09:02:25;;;;;;;8.73;5.18;;;;;;;;;;5000337;28;20081;-69
2022/08/30 09:05:17;;;;;;;11.43;5.40;;;;;;;;;;5003505;28;20029;-72
2022/08/30 09:08:07;;;;;;;10.23;5.57;;;;;;;;;;4997168;28;20034;-73
2022/08/30 09:11:03;;;;;;;7.38;4.57;;;;;;;;;;4981456;28;20030;-70
2022/08/30 09:13:49;;;;;;;8.85;5.30;;;;;;;;;;4994767;28;20030;-72
2022/08/30 09:16:47;;;;;;;8.15;5.57;;;;;;;;;;5003577;28;20093;-71
2022/08/30 09:19:55;;;;;;;8.40;4.97;;;;;;;;;;5009262;28;20041;-71
2022/08/30 09:22:42;;;;;;;7.97;5.03;;;;;;;;;;4993977;28;20034;-71
2022/08/30 09:25:29;;;;;;;10.73;6.20;;;;;;;;;;5006901;28;20443;-70
2022/08/30 09:28:19;;;;;;;10.77;5.22;;;;;;;;;;5001259;28;20030;-75
2022/08/30 09:31:25;;;;;;;9.48;5.25;;;;;;;;;;5005595;28;20026;-75
2022/08/30 09:34:15;;;;;;;9.85;5.50;;;;;;;;;;4996421;28;20014;-74
2022/08/30 09:37:00;;;;;;;8.07;4.97;;;;;;;;;;5004891;28;20022;-75
2022/08/30 09:39:46;;;;;;;9.98;5.32;;;;;;;;;;5005636;28;20120;-75
2022/08/30 09:42:32;;;;;;;8.80;4.70;;;;;;;;;;5001451;28;20034;-75
2022/08/30 09:45:20;;;;;;;6.47;4.60;;;;;;;;;;4994420;28;20108;-75
2022/08/30 09:48:24;;;;;;;8.03;4.40;;;;;;;;;;4981921;28;20030;-77
2022/08/30 09:51:09;;;;;;;9.10;4.35;;;;;;;;;;5001680;28;20026;-74
2022/08/30 09:54:01;;;;;;;6.38;4.25;;;;;;;;;;5002471;28;20113;-74
2022/08/30 09:56:53;;;;;;;7.60;4.07;;;;;;;;;;5015159;28;20472;-74
2022/08/30 09:59:41;;;;;;;6.63;4.00;;;;;;;;;;5005817;28;20133;-73
2022/08/30 10:02:45;;;;;;;8.07;4.28;;;;;;;;;;4996977;28;20515;-76
2022/08/30 10:05:37;;;;;;;7.72;4.22;;;;;;;;;;4994416;28;20038;-75
2022/08/30 10:08:28;;;;;;;5.93;3.72;;;;;;;;;;4995516;28;20461;-74
2022/08/30 10:11:32;;;;;;;4.55;3.28;;;;;;;;;;5012451;28;20030;-74
2022/08/30 10:14:24;;;;;;;8.57;4.18;;;;;;;;;;4985443;28;20116;-74
2022/08/30 10:17:18;;;;;;;5.97;3.78;;;;;;;;;;5004908;28;20038;-77
2022/08/30 10:20:19;;;;;;;5.85;3.90;;;;;;;;;;4985966;28;20030;-76
2022/08/30 10:23:08;;;;;;;5.13;3.63;;;;;;;;;;4998438;28;20377;-75
2022/08/30 10:25:56;;;;;;;7.28;4.18;;;;;;;;;;5003931;28;20029;-78
2022/08/30 10:28:48;;;;;;;6.93;4.03;;;;;;;;;;4999944;28;20045;-74
2022/08/30 10:31:52;;;;;;;6.85;3.70;;;;;;;;;;4999308;28;20261;-74
2022/08/30 10:34:39;;;;;;;4.75;3.47;;;;;;;;;;5002059;28;20034;-73
2022/08/30 10:37:26;;;;;;;6.95;3.63;;;;;;;;;;5010082;28;20468;-75
2022/08/30 10:43:25;;;;;;;4.13;2.97;;;;;;;;;;5006248;28;20053;-78
2022/08/30 10:46:15;;;;;;;5.05;3.65;;;;;;;;;;5000629;28;20042;-68
2022/08/30 10:49:03;;;;;;;4.63;3.58;;;;;;;;;;5006657;28;20034;-69
2022/08/30 10:51:51;;;;;;;5.60;3.70;;;;;;;;;;5011663;28;20030;-68
2022/08/30 10:54:43;;;;;;;6.00;3.22;;;;;;;;;;5001282;28;20541;-76
2022/08/30 10:57:28;;;;;;;5.50;3.30;;;;;;;;;;4979352;28;20042;-71
2022/08/30 11:00:25;;;;;;;5.70;4.03;;;;;;;;;;5001490;28;20030;-71
2022/08/30 11:03:26;;;;;;;5.13;3.30;;;;;;;;;;4986651;28;20026;-76
2022/08/30 11:06:14;;;;;;;4.00;3.17;;;;;;;;;;5006362;28;20392;-74
2022/08/30 11:09:18;;;;;;;5.90;3.85;;;;;;;;;;5011510;28;20018;-73
2022/08/30 11:12:22;;;;;;;6.03;4.05;;;;;;;;;;5003202;28;20084;-72
2022/08/30 11:15:14;;;;;;;5.88;3.55;;;;;;;;;;5005285;28;20034;-72
2022/08/30 11:18:03;;;;;;;7.50;3.33;;;;;;;;;;4988569;28;20451;-74
2022/08/30 11:20:50;;;;;;;5.78;3.83;;;;;;;;;;5006162;28;20421;-75
2022/08/30 11:23:36;;;;;;;6.70;4.38;;;;;;;;;;5003018;28;20568;-73
2022/08/30 11:26:40;;;;;;;7.72;4.03;;;;;;;;;;4992915;28;20433;-73
2022/08/30 11:29:31;;;;;;;5.38;3.47;;;;;;;;;;5001469;28;20037;-73
2022/08/30 11:32:22;;;;;;;8.38;4.43;;;;;;;;;;5001250;28;20034;-75
2022/08/30 11:35:08;;;;;;;5.28;3.80;;;;;;;;;;5001917;28;20042;-74
2022/08/30 11:37:54;;;;;;;6.70;4.03;;;;;;;;;;5005407;28;20089;-75
2022/08/30 11:40:47;;;;;;;7.97;5.63;;;;;;;;;;5010012;28;20072;-73
2022/08/30 11:43:32;;;;;;;6.93;5.05;;;;;;;;;;4989454;28;20033;-73
2022/08/30 11:46:27;;;;;;;5.25;4.00;;;;;;;;;;4993987;28;20393;-73
2022/08/30 11:49:12;;;;;;;7.20;3.90;;;;;;;;;;5009207;28;20065;-73
2022/08/30 11:52:07;;;;;;;5.80;4.15;;;;;;;;;;4993764;28;20041;-75
2022/08/30 11:55:11;;;;;;;5.47;3.80;;;;;;;;;;4995589;28;20033;-72
2022/08/30 11:58:15;;;;;;;7.05;4.00;;;;;;;;;;5004739;28;20499;-74
2022/08/30 12:01:18;;;;;;;5.63;3.90;;;;;;;;;;4982824;28;20062;-76
2022/08/30 12:04:10;;;;;;;5.90;3.67;;;;;;;;;;4999973;28;20029;-76
2022/08/30 12:07:03;;;;;;;6.15;3.95;;;;;;;;;;5003531;28;20034;-77
2022/08/30 12:09:48;;;;;;;5.72;3.88;;;;;;;;;;4998296;28;20068;-74
2022/08/30 12:12:37;;;;;;;5.32;3.58;;;;;;;;;;4992778;28;20453;-75
2022/08/30 12:15:27;;;;;;;6.05;4.00;;;;;;;;;;5003189;28;20108;-74
2022/08/30 12:18:28;;;;;;;5.38;4.13;;;;;;;;;;5003572;28;20041;-75
2022/08/30 12:21:14;;;;;;;6.60;4.07;;;;;;;;;;4992622;28;20025;-74
2022/08/30 12:24:15;;;;;;;6.03;4.00;;;;;;;;;;5001752;28;20057;-74
2022/08/30 12:27:04;;;;;;;5.15;3.92;;;;;;;;;;5003899;28;20076;-74
2022/08/30 12:30:00;;;;;;;7.38;4.22;;;;;;;;;;5004136;28;20026;-79
2022/08/30 12:32:46;;;;;;;7.72;4.50;;;;;;;;;;5001368;28;20044;-75
2022/08/30 12:35:32;;;;;;;7.82;4.40;;;;;;;;;;5007003;28;20030;-77
2022/08/30 12:38:20;;;;;;;5.72;3.70;;;;;;;;;;4999965;28;20034;-78
2022/08/30 12:41:05;;;;;;;5.55;3.83;;;;;;;;;;4992265;28;20389;-78
2022/08/30 12:43:51;;;;;;;5.68;3.83;;;;;;;;;;5004083;28;20033;-77
2022/08/30 12:46:37;;;;;;;5.90;4.28;;;;;;;;;;5007137;28;20061;-78
2022/08/30 12:49:23;;;;;;;23.42;4.95;;;;;;;;;;5000457;28;20037;-73
2022/08/30 12:52:30;;;;;;;9.00;4.28;;;;;;;;;;4996610;28;20092;-76
2022/08/30 12:55:17;;;;;;;4.78;3.83;;;;;;;;;;5004542;28;20065;-73
2022/08/30 12:58:06;;;;;;;4.55;4.10;;;;;;;;;;5002242;28;20025;-74
2022/08/30 13:01:09;;;;;;;5.88;3.70;;;;;;;;;;5007639;28;20030;-73
2022/08/30 13:04:14;;;;;;;6.15;3.65;;;;;;;;;;4991553;28;20109;-74
2022/08/30 13:07:00;;;;;;;5.53;3.75;;;;;;;;;;4998656;28;20038;-75
2022/08/30 13:09:46;;;;;;;5.85;3.95;;;;;;;;;;5011942;28;20465;-78
2022/08/30 13:12:34;;;;;;;8.52;3.40;;;;;;;;;;4997420;28;20029;-75
2022/08/30 13:15:27;;;;;;;5.78;3.83;;;;;;;;;;5009430;28;20029;-73
2022/08/30 13:18:15;;;;;;;11.07;3.67;;;;;;;;;;4992362;28;20045;-76
2022/08/30 13:21:10;;;;;;;18.67;4.22;;;;;;;;;;4999944;28;20033;-74
2022/08/30 13:24:00;;;;;;;7.82;3.92;;;;;;;;;;5007599;28;20037;-75
2022/08/30 13:26:46;;;;;;;10.30;4.13;;;;;;;;;;4997816;28;20026;-73
2022/08/30 13:29:32;;;;;;;6.10;3.53;;;;;;;;;;5011639;28;20034;-75
2022/08/30 13:32:18;;;;;;;4.78;3.92;;;;;;;;;;5003930;28;20026;-74
2022/08/30 13:35:04;;;;;;;6.10;3.63;;;;;;;;;;4998919;28;20030;-76
2022/08/30 13:37:50;;;;;;;21.67;4.28;;;;;;;;;;5015171;28;20387;-75
2022/08/30 13:40:35;;;;;;;12.00;4.65;;;;;;;;;;5008458;28;20040;-75
2022/08/30 13:43:21;;;;;;;15.52;4.60;;;;;;;;;;5014287;28;20054;-73
2022/08/30 13:46:07;;;;;;;5.22;3.72;;;;;;;;;;5005617;28;20119;-77
2022/08/30 13:48:57;;;;;;;5.45;3.85;;;;;;;;;;5009471;28;20459;-77
2022/08/30 13:51:42;;;;;;;4.55;3.30;;;;;;;;;;4990874;28;20080;-76
2022/08/30 13:54:28;;;;;;;6.65;4.25;;;;;;;;;;5008683;28;20078;-76
2022/08/30 13:57:14;;;;;;;5.85;4.15;;;;;;;;;;5006633;28;20065;-78
2022/08/30 13:59:59;;;;;;;12.38;4.28;;;;;;;;;;5014890;28;20103;-75
2022/08/30 14:02:46;;;;;;;5.32;3.92;;;;;;;;;;5001516;28;20033;-76
2022/08/30 14:05:33;;;;;;;6.68;4.25;;;;;;;;;;5007774;28;20033;-74
2022/08/30 14:08:21;;;;;;;4.70;3.38;;;;;;;;;;5007645;28;20233;-77
2022/08/30 14:11:11;;;;;;;4.90;4.10;;;;;;;;;;5009293;28;20424;-75
2022/08/30 14:13:56;;;;;;;6.78;3.42;;;;;;;;;;5006237;28;20079;-76
2022/08/30 14:16:43;;;;;;;7.07;3.58;;;;;;;;;;5010900;28;20029;-74
2022/08/30 14:19:28;;;;;;;6.18;4.15;;;;;;;;;;5002927;28;20092;-73
2022/08/30 14:22:14;;;;;;;8.77;4.10;;;;;;;;;;5002620;28;20380;-76
2022/08/30 14:25:02;;;;;;;8.07;3.60;;;;;;;;;;5012842;28;20526;-76
2022/08/30 14:27:48;;;;;;;5.05;3.70;;;;;;;;;;4987754;28;20034;-76
2022/08/30 14:30:33;;;;;;;6.38;3.92;;;;;;;;;;5007360;28;20041;-76
2022/08/30 14:33:19;;;;;;;5.40;3.70;;;;;;;;;;5011720;28;20351;-75
2022/08/30 14:36:05;;;;;;;6.78;3.88;;;;;;;;;;5008478;28;20441;-75
2022/08/30 14:38:50;;;;;;;5.25;3.55;;;;;;;;;;5001448;28;20045;-76
2022/08/30 14:41:40;;;;;;;10.90;4.10;;;;;;;;;;4999948;28;20026;-77
2022/08/30 14:44:25;;;;;;;7.38;4.10;;;;;;;;;;5005105;28;20045;-76
2022/08/30 14:47:11;;;;;;;5.53;3.55;;;;;;;;;;4993988;28;20041;-76
2022/08/30 14:49:59;;;;;;;5.03;3.80;;;;;;;;;;5005178;28;20084;-75
2022/08/30 14:52:45;;;;;;;5.13;3.90;;;;;;;;;;5013010;28;20028;-76
2022/08/30 14:55:32;;;;;;;6.63;3.65;;;;;;;;;;5011937;28;20133;-74
2022/08/30 14:58:18;;;;;;;5.95;3.58;;;;;;;;;;4991928;28;20058;-75
2022/08/30 15:01:07;;;;;;;6.57;3.75;;;;;;;;;;4985962;28;20512;-74
2022/08/30 15:03:53;;;;;;;5.18;3.65;;;;;;;;;;4984255;28;20161;-76
2022/08/30 15:06:40;;;;;;;5.70;4.00;;;;;;;;;;4984025;28;20037;-75
2022/08/30 15:09:25;;;;;;;7.05;4.10;;;;;;;;;;5004723;28;20385;-75
2022/08/30 15:12:11;;;;;;;6.60;4.15;;;;;;;;;;4991082;28;20075;-75
2022/08/30 15:14:57;;;;;;;7.53;4.70;;;;;;;;;;4994389;28;20026;-75
2022/08/30 15:17:43;;;;;;;6.43;4.53;;;;;;;;;;5010400;28;20077;-76
2022/08/30 15:20:29;;;;;;;8.35;4.65;;;;;;;;;;5009386;28;20037;-75
2022/08/30 15:23:15;;;;;;;7.10;4.60;;;;;;;;;;4998807;28;20437;-78
2022/08/30 15:26:01;;;;;;;6.50;4.20;;;;;;;;;;5000985;28;20026;-78
2022/08/30 15:28:47;;;;;;;10.30;4.97;;;;;;;;;;5008725;28;20095;-78
2022/08/30 15:31:32;;;;;;;7.13;4.25;;;;;;;;;;4999665;28;20396;-77
2022/08/30 15:34:19;;;;;;;5.68;3.88;;;;;;;;;;4991548;28;20045;-68
2022/08/30 15:37:04;;;;;;;8.88;4.82;;;;;;;;;;5009556;28;20028;-68
2022/08/30 15:39:50;;;;;;;6.72;3.92;;;;;;;;;;5000665;28;20172;-68
2022/08/30 15:42:36;;;;;;;5.53;4.00;;;;;;;;;;4980841;28;20021;-66
2022/08/30 15:45:21;;;;;;;8.05;4.15;;;;;;;;;;5007332;28;20084;-67
2022/08/30 15:48:07;;;;;;;7.47;4.55;;;;;;;;;;5005635;28;20034;-68
2022/08/30 15:50:56;;;;;;;6.40;4.40;;;;;;;;;;4996508;28;20465;-67
2022/08/30 15:53:42;;;;;;;7.25;3.80;;;;;;;;;;4998010;28;20429;-66
2022/08/30 15:56:29;;;;;;;7.25;4.40;;;;;;;;;;4983012;28;20049;-67
2022/08/30 15:59:16;;;;;;;6.90;4.70;;;;;;;;;;5007101;28;20096;-75
2022/08/30 16:02:02;;;;;;;6.07;4.03;;;;;;;;;;5000790;28;20034;-72
2022/08/30 16:04:47;;;;;;;7.47;4.22;;;;;;;;;;5002840;28;20034;-72
2022/08/30 16:07:33;;;;;;;18.27;5.53;;;;;;;;;;5006085;28;20048;-71
2022/08/30 16:10:18;;;;;;;9.07;4.15;;;;;;;;;;5001241;28;20049;-72
2022/08/30 16:13:04;;;;;;;5.45;3.92;;;;;;;;;;4986614;28;20030;-73
2022/08/30 16:15:50;;;;;;;8.05;4.95;;;;;;;;;;5009657;28;20036;-73
2022/08/30 16:18:35;;;;;;;4.97;3.53;;;;;;;;;;5002216;28;20487;-61
2022/08/30 16:21:31;;;;;;;5.20;4.00;;;;;;;;;;5008938;28;20113;-62
2022/08/30 16:24:19;;;;;;;5.97;4.35;;;;;;;;;;4999629;28;20492;-63
2022/08/30 16:27:05;;;;;;;6.80;4.55;;;;;;;;;;5008568;28;20017;-62
2022/08/30 16:29:50;;;;;;;6.70;4.50;;;;;;;;;;5000294;28;20038;-61
2022/08/30 16:32:36;;;;;;;6.55;4.18;;;;;;;;;;5011618;28;20033;-65
2022/08/30 16:35:21;;;;;;;16.00;14.07;;;;;;;;;;5008909;28;20069;-65
2022/08/30 16:38:07;;;;;;;13.15;11.20;;;;;;;;;;4999772;28;20043;-66
2022/08/30 16:40:53;;;;;;;9.95;7.85;;;;;;;;;;4996570;28;20060;-65
2022/08/30 16:43:38;;;;;;;82.93;75.40;;;;;;;;;;4991962;28;20113;-65
2022/08/30 16:46:24;;;;;;;27.15;24.35;;;;;;;;;;4996046;28;20104;-65
2022/08/30 16:49:10;;;;;;;21.95;19.70;;;;;;;;;;5000934;28;20034;-63
2022/08/30 16:51:55;;;;;;;42.53;38.42;;;;;;;;;;5004270;28;20385;-63
2022/08/30 16:54:41;;;;;;;32.97;29.83;;;;;;;;;;5006775;28;20050;-70